Time;durP1;ratioP1;P1;durP2;ratioP2;P2;SDS_P1;SDS_P2;PMS_P1;PMS_P2;Temp;Humidity;BMP_temperature;BMP_pressure;BME280_temperature;BME280_humidity;BME280_pressure;Samples;Min_cycle;Max_cycle;Signal;HPM_P1;HPM_P2
2023/03/14 00:01:43;;;;;;;13.80;7.20;;;;;;;19.66;63.64;98714.25;4902240;29;20064;-62
2023/03/14 00:04:32;;;;;;;14.43;6.47;;;;;;;19.66;63.12;98713.44;4902397;29;20052;-62
2023/03/14 00:07:17;;;;;;;10.60;6.90;;;;;;;19.58;63.27;98712.03;4901593;29;20459;-62
2023/03/14 00:10:17;;;;;;;18.40;7.80;;;;;;;19.55;63.97;98709.03;4892814;29;20392;-63
2023/03/14 00:12:53;;;;;;;16.60;7.30;;;;;;;19.52;63.52;98709.50;4893641;29;20072;-62
2023/03/14 00:15:41;;;;;;;13.80;7.10;;;;;;;19.50;64.49;98712.47;4907938;29;20072;-62
2023/03/14 00:18:23;;;;;;;15.02;8.15;;;;;;;19.50;64.46;98712.47;4910421;29;20067;-63
2023/03/14 00:21:19;;;;;;;13.15;7.32;;;;;;;19.49;64.29;98708.16;4911652;28;20045;-62
2023/03/14 00:23:55;;;;;;;15.43;8.07;;;;;;;19.57;63.56;98713.06;4911096;29;20115;-63
2023/03/14 00:26:44;;;;;;;13.23;7.90;;;;;;;19.55;63.61;98709.03;4895811;29;20108;-62
2023/03/14 00:29:29;;;;;;;14.02;7.97;;;;;;;19.56;63.41;98713.34;4906335;29;20083;-62
2023/03/14 00:32:24;;;;;;;13.13;8.10;;;;;;;19.52;64.45;98713.00;4894448;29;20160;-62
2023/03/14 00:35:02;;;;;;;13.63;7.53;;;;;;;19.46;64.20;98715.91;4884921;29;20127;-62
2023/03/14 00:37:58;;;;;;;14.32;8.35;;;;;;;19.40;64.25;98712.28;4881714;29;20120;-62
2023/03/14 00:40:34;;;;;;;15.15;7.90;;;;;;;19.38;64.00;98711.75;4891003;29;20065;-61
2023/03/14 00:43:30;;;;;;;15.90;9.33;;;;;;;19.43;64.35;98713.69;4904666;29;20056;-62
2023/03/14 00:46:07;;;;;;;24.50;11.20;;;;;;;19.43;64.10;98719.88;4872610;29;20289;-62
2023/03/14 00:48:55;;;;;;;25.00;13.03;;;;;;;19.42;64.14;98715.56;4895918;29;20123;-62
2023/03/14 00:51:37;;;;;;;35.30;16.73;;;;;;;19.42;64.06;98720.13;4896985;29;20571;-62
2023/03/14 00:54:33;;;;;;;29.42;15.70;;;;;;;19.48;64.02;98719.13;4877762;29;20056;-62
2023/03/14 00:57:09;;;;;;;31.33;18.70;;;;;;;19.61;63.10;98713.38;4888470;29;20111;-61
2023/03/14 01:00:06;;;;;;;35.40;18.48;;;;;;;19.44;64.27;98728.75;4883107;29;20044;-63
2023/03/14 01:02:42;;;;;;;42.95;21.20;;;;;;;19.35;64.17;98725.66;4895778;29;20083;-64
2023/03/14 01:05:38;;;;;;;41.28;22.13;;;;;;;19.29;64.67;98726.66;4882172;29;20075;-64
2023/03/14 01:08:15;;;;;;;45.97;25.25;;;;;;;19.21;64.63;98727.88;4868995;29;20048;-64
2023/03/14 01:11:13;;;;;;;50.08;26.67;;;;;;;19.21;64.06;98732.44;4894342;29;20060;-63
2023/03/14 01:14:05;;;;;;;55.45;28.35;;;;;;;19.19;62.83;98734.56;4900134;29;20055;-60
2023/03/14 01:17:00;;;;;;;50.72;28.33;;;;;;;19.21;62.89;98744.00;4891686;29;20119;-63
2023/03/14 01:19:36;;;;;;;55.38;27.05;;;;;;;19.34;63.49;98742.81;4894347;28;20056;-61
2023/03/14 01:22:33;;;;;;;49.67;27.05;;;;;;;19.30;63.38;98745.19;4883849;29;20142;-62
2023/03/14 01:25:12;;;;;;;57.78;27.63;;;;;;;19.34;63.25;98750.09;4891592;29;20055;-62
2023/03/14 01:28:08;;;;;;;53.08;26.33;;;;;;;19.27;63.99;98750.25;4899965;29;20109;-62
2023/03/14 01:30:44;;;;;;;54.67;26.77;;;;;;;19.36;64.22;98754.16;4888301;29;20059;-62
2023/03/14 01:33:40;;;;;;;51.03;26.13;;;;;;;19.38;64.38;98752.03;4891810;29;20147;-61
2023/03/14 01:36:16;;;;;;;51.63;26.20;;;;;;;19.43;64.21;98748.59;4908281;29;20491;-61
2023/03/14 01:39:13;;;;;;;50.47;25.92;;;;;;;19.49;63.83;98750.31;4908150;29;20044;-62
2023/03/14 01:41:49;;;;;;;52.88;25.85;;;;;;;19.44;63.47;98764.47;4907802;29;20394;-62
2023/03/14 01:44:59;;;;;;;55.27;23.23;;;;;;;19.33;64.25;98757.34;4907724;29;20108;-63
2023/03/14 01:47:48;;;;;;;42.65;20.58;;;;;;;19.39;64.52;98764.38;4882443;29;20044;-62
2023/03/14 01:50:31;;;;;;;44.42;20.65;;;;;;;19.61;64.05;98765.25;4873216;29;20037;-62
2023/03/14 01:53:21;;;;;;;47.08;21.42;;;;;;;19.62;64.55;98766.06;4886617;29;20649;-62
2023/03/14 01:56:06;;;;;;;48.65;20.20;;;;;;;19.65;63.86;98771.75;4883439;29;20053;-62
2023/03/14 01:58:58;;;;;;;58.13;21.10;;;;;;;19.66;64.05;98775.25;4888332;29;20036;-62
2023/03/14 02:01:49;;;;;;;54.58;21.50;;;;;;;19.69;64.00;98769.41;4886933;29;20052;-62
2023/03/14 02:04:36;;;;;;;41.83;22.48;;;;;;;19.76;63.26;98774.56;4878392;29;20621;-62
2023/03/14 02:07:46;;;;;;;48.80;23.73;;;;;;;19.86;62.72;98767.47;4847237;29;20731;-62
2023/03/14 02:10:42;;;;;;;47.88;24.15;;;;;;;19.89;60.12;98761.56;4873548;29;20052;-61
2023/03/14 02:13:49;;;;;;;51.92;25.50;;;;;;;19.98;59.46;98765.44;4886604;29;20484;-61
2023/03/14 02:16:57;;;;;;;52.83;26.20;;;;;;;20.09;60.49;98771.75;4903407;29;20746;-61
2023/03/14 02:20:14;;;;;;;54.53;25.33;;;;;;;20.31;59.09;98772.56;4902865;28;20691;-61
2023/03/14 02:23:05;;;;;;;51.45;25.40;;;;;;;20.79;60.46;98778.94;4896151;29;20605;-61
2023/03/14 02:26:28;;;;;;;56.58;27.05;;;;;;;21.73;58.51;98776.34;4893480;29;20048;-61
2023/03/14 02:29:17;;;;;;;48.85;24.52;;;;;;;22.27;54.23;98780.34;4824218;29;20050;-63
2023/03/14 02:32:15;;;;;;;50.28;26.05;;;;;;;23.39;54.37;98780.41;4888503;29;20773;-63
2023/03/14 02:34:56;;;;;;;55.50;24.90;;;;;;;23.78;51.60;98794.09;4882882;29;20052;-62
2023/03/14 02:37:55;;;;;;;57.25;26.30;;;;;;;24.61;50.27;98792.34;4881120;29;20048;-63
2023/03/14 02:40:42;;;;;;;53.17;26.60;;;;;;;24.04;47.40;98796.44;4888148;29;20056;-63
2023/03/14 02:43:39;;;;;;;48.55;24.92;;;;;;;23.57;48.60;98801.47;4895178;29;20064;-63
2023/03/14 02:46:20;;;;;;;56.30;23.48;;;;;;;24.00;49.79;98803.50;4878382;29;20159;-62
2023/03/14 02:49:21;;;;;;;48.28;23.73;;;;;;;25.24;42.99;98803.28;4885100;29;20540;-63
2023/03/14 02:51:57;;;;;;;50.92;23.88;;;;;;;26.31;41.58;98801.03;4893442;29;20058;-63
2023/03/14 02:54:46;;;;;;;40.50;21.27;;;;;;;27.54;39.64;98810.50;4889012;29;20056;-63
2023/03/14 02:57:29;;;;;;;45.30;21.23;;;;;;;26.34;41.29;98809.38;4895051;29;20067;-63
2023/03/14 03:00:26;;;;;;;44.13;21.25;;;;;;;27.00;39.38;98805.72;4892037;29;20048;-62
2023/03/14 03:03:05;;;;;;;48.83;20.42;;;;;;;27.70;38.95;98811.03;4889283;29;20068;-63
2023/03/14 03:05:56;;;;;;;39.53;21.13;;;;;;;28.24;37.99;98804.78;4894985;29;20061;-63
2023/03/14 03:08:38;;;;;;;;;;;;;;;28.29;37.74;98810.13;4890756;29;20144;-64
2023/03/14 03:11:27;;;;;;;48.30;21.17;;;;;;;27.59;38.74;98813.13;4871639;29;19927;-64
2023/03/14 03:14:22;;;;;;;43.95;22.92;;;;;;;27.16;38.97;98809.81;4883792;29;20144;-63
2023/03/14 03:17:08;;;;;;;42.97;20.27;;;;;;;26.65;40.81;98815.19;4876434;29;20819;-64
2023/03/14 03:20:04;;;;;;;41.28;19.02;;;;;;;25.99;42.47;98817.16;4895952;29;20491;-64
2023/03/14 03:22:53;;;;;;;34.65;17.10;;;;;;;26.14;42.62;98809.63;4882194;29;20053;-63
2023/03/14 03:25:45;;;;;;;29.80;15.68;;;;;;;25.69;42.50;98819.13;4857376;29;20505;-61
2023/03/14 03:28:27;;;;;;;27.58;13.23;;;;;;;25.94;41.77;98824.25;4887119;29;20549;-61
2023/03/14 03:31:18;;;;;;;24.90;13.00;;;;;;;26.75;41.14;98825.09;4856571;29;20621;-62
2023/03/14 03:34:00;;;;;;;24.13;12.38;;;;;;;25.63;41.43;98827.59;4858918;29;20366;-62
2023/03/14 03:36:50;;;;;;;28.15;12.48;;;;;;;25.93;42.96;98824.56;4881611;29;20048;-62
2023/03/14 03:39:34;;;;;;;28.95;12.43;;;;;;;25.68;42.81;98822.13;4881282;29;20137;-62
2023/03/14 03:42:23;;;;;;;24.45;13.27;;;;;;;25.86;43.43;98830.31;4876899;29;20052;-62
2023/03/14 03:45:06;;;;;;;17.88;11.07;;;;;;;26.93;43.02;98828.94;4884785;29;20135;-61
2023/03/14 03:48:01;;;;;;;22.92;12.90;;;;;;;27.25;44.68;98818.09;4884778;29;20793;-62
2023/03/14 03:50:47;;;;;;;27.27;12.48;;;;;;;26.67;41.99;98826.59;4879870;29;20455;-62
2023/03/14 03:53:38;;;;;;;25.65;13.65;;;;;;;26.06;42.28;98834.72;4854115;29;20710;-63
2023/03/14 03:56:25;;;;;;;22.23;13.98;;;;;;;26.44;42.35;98823.94;4885622;29;20060;-63
2023/03/14 03:59:14;;;;;;;19.25;13.75;;;;;;;26.53;41.69;98836.56;4868817;29;20065;-62
2023/03/14 04:01:56;;;;;;;29.52;14.10;;;;;;;26.33;41.93;98829.50;4863517;29;20148;-63
2023/03/14 04:04:45;;;;;;;27.35;15.48;;;;;;;26.18;42.94;98834.28;4868409;29;20732;-63
2023/03/14 04:07:27;;;;;;;26.75;14.32;;;;;;;26.41;40.58;98829.97;4883152;29;20244;-61
2023/03/14 04:10:17;;;;;;;23.20;12.55;;;;;;;26.51;41.20;98837.97;4886022;29;20053;-60
2023/03/14 04:13:15;;;;;;;23.92;12.90;;;;;;;26.99;42.52;98839.47;4883349;29;20052;-63
2023/03/14 04:16:04;;;;;;;25.67;13.15;;;;;;;27.62;41.13;98845.19;4882735;29;20053;-64
2023/03/14 04:18:46;;;;;;;23.65;13.68;;;;;;;27.79;40.53;98839.19;4877243;29;20152;-63
2023/03/14 04:21:46;;;;;;;20.25;11.57;;;;;;;28.34;40.81;98839.16;4879215;29;20049;-62
2023/03/14 04:24:25;;;;;;;26.10;12.80;;;;;;;27.35;38.76;98833.44;4866642;29;20056;-62
2023/03/14 04:27:14;;;;;;;32.58;12.52;;;;;;;27.26;40.66;98830.59;4888554;29;20053;-62
2023/03/14 04:30:03;;;;;;;28.00;12.88;;;;;;;27.65;38.78;98831.00;4886721;29;20060;-63
2023/03/14 04:32:58;;;;;;;17.60;11.60;;;;;;;27.98;39.23;98830.88;4887062;29;20060;-63
2023/03/14 04:35:44;;;;;;;23.40;12.70;;;;;;;28.66;39.25;98830.84;4884746;29;20069;-63
2023/03/14 04:38:40;;;;;;;20.98;11.43;;;;;;;29.08;36.58;98826.84;4883676;29;20072;-63
2023/03/14 04:41:20;;;;;;;22.63;11.98;;;;;;;28.23;37.08;98833.16;4878537;29;20052;-63
2023/03/14 04:44:09;;;;;;;24.10;11.00;;;;;;;29.41;38.03;98822.78;4854630;29;20045;-64
2023/03/14 04:47:00;;;;;;;30.48;10.57;;;;;;;30.08;36.96;98819.88;4883630;29;20059;-63
2023/03/14 04:49:44;;;;;;;19.10;10.23;;;;;;;30.51;35.67;98822.72;4865140;29;20052;-62
2023/03/14 04:52:36;;;;;;;16.90;9.98;;;;;;;29.48;36.08;98829.69;4873699;29;20139;-61
2023/03/14 04:55:18;;;;;;;21.55;10.43;;;;;;;30.04;35.92;98831.75;4879560;29;20045;-63
2023/03/14 04:58:07;;;;;;;19.23;10.93;;;;;;;29.97;35.60;98829.47;4884418;29;20123;-62
2023/03/14 05:00:50;;;;;;;19.08;11.13;;;;;;;29.45;35.52;98826.47;4887443;29;20079;-62
2023/03/14 05:03:51;;;;;;;25.95;12.02;;;;;;;29.55;35.97;98821.88;4871161;29;20053;-62
2023/03/14 05:07:15;;;;;;;14.40;10.48;;;;;;;30.75;37.14;98819.53;4870076;29;20136;-61
2023/03/14 05:10:17;;;;;;;22.83;11.75;;;;;;;30.45;36.71;98818.50;4866007;29;20139;-62
2023/03/14 05:13:24;;;;;;;17.88;10.52;;;;;;;30.20;36.11;98822.78;4884757;29;20628;-66
2023/03/14 05:16:42;;;;;;;27.20;12.30;;;;;;;30.71;37.30;98818.56;4856924;29;20057;-65
2023/03/14 05:19:36;;;;;;;41.17;11.80;;;;;;;30.65;36.87;98819.81;4863768;29;20056;-64
2023/03/14 05:22:56;;;;;;;32.50;11.57;;;;;;;30.86;36.04;98812.59;4870926;29;20136;-65
2023/03/14 05:26:10;;;;;;;29.88;11.45;;;;;;;31.18;35.56;98803.88;4876613;29;20048;-64
2023/03/14 05:29:19;;;;;;;22.50;11.43;;;;;;;30.91;35.97;98809.69;4880575;29;20148;-65
2023/03/14 05:32:24;;;;;;;26.48;12.07;;;;;;;31.04;34.47;98797.78;4882537;29;20119;-65
2023/03/14 05:35:45;;;;;;;20.67;12.32;;;;;;;30.60;35.08;98803.56;4876060;29;20048;-64
2023/03/14 05:38:51;;;;;;;27.17;12.13;;;;;;;30.74;34.58;98796.03;4887440;29;20052;-67
2023/03/14 05:42:06;;;;;;;29.95;12.23;;;;;;;30.12;36.04;98787.25;4871104;29;20201;-65
2023/03/14 05:45:19;;;;;;;21.90;12.32;;;;;;;30.44;36.46;98791.47;4871501;29;20056;-65
2023/03/14 05:48:31;;;;;;;28.25;13.25;;;;;;;31.23;37.93;98791.16;4873790;29;20053;-66
2023/03/14 05:51:29;;;;;;;25.52;13.05;;;;;;;31.53;38.85;98784.63;4893124;29;20040;-65
2023/03/14 05:54:46;;;;;;;35.40;15.07;;;;;;;31.75;35.05;98781.66;4884816;29;20072;-63
2023/03/14 05:57:53;;;;;;;32.67;17.52;;;;;;;31.03;33.46;98777.03;4534789;29;10000139;-68
2023/03/14 06:01:03;;;;;;;45.05;24.35;;;;;;;31.40;33.49;98769.22;4885416;29;20049;-66
2023/03/14 06:04:17;;;;;;;29.65;15.73;;;;;;;31.55;36.79;98777.72;4876044;29;20049;-67
2023/03/14 06:07:06;;;;;;;43.45;24.52;;;;;;;31.58;35.04;98779.81;4870312;29;20063;-68
2023/03/14 06:09:49;;;;;;;39.75;22.88;;;;;;;31.56;35.40;98771.09;4875902;29;20416;-68
2023/03/14 06:12:38;;;;;;;49.83;23.48;;;;;;;31.85;34.65;98764.84;4864716;29;20072;-68
2023/03/14 06:15:21;;;;;;;49.15;31.13;;;;;;;31.73;34.46;98764.78;4871421;29;20045;-70
2023/03/14 06:18:10;;;;;;;51.25;30.48;;;;;;;31.20;41.14;98771.50;4859950;29;20059;-66
2023/03/14 06:21:03;;;;;;;64.53;35.00;;;;;;;31.27;38.76;98771.03;4883928;29;20044;-67
2023/03/14 06:23:58;;;;;;;55.17;30.60;;;;;;;31.15;38.29;98765.44;4862971;29;20131;-67
2023/03/14 06:26:40;;;;;;;78.82;42.55;;;;;;;31.16;39.54;98748.66;4854802;29;20064;-68
2023/03/14 06:29:37;;;;;;;87.60;46.03;;;;;;;30.82;36.76;98747.91;4869772;29;20048;-66
2023/03/14 06:32:13;;;;;;;42.22;27.80;;;;;;;31.18;39.36;98743.69;4873215;29;20136;-65
2023/03/14 06:35:07;;;;;;;90.30;50.53;;;;;;;30.99;33.60;98747.88;4880712;29;20143;-69
2023/03/14 06:37:50;;;;;;;61.10;38.97;;;;;;;30.99;39.87;98740.47;4864382;29;20050;-66
2023/03/14 06:40:46;;;;;;;90.03;46.70;;;;;;;30.92;35.39;98734.72;4871052;29;20155;-63
2023/03/14 06:43:32;;;;;;;82.03;47.65;;;;;;;31.00;35.54;98727.59;4884350;29;20132;-68
2023/03/14 06:46:28;;;;;;;81.20;48.78;;;;;;;31.10;34.17;98727.28;4869759;29;20449;-64
2023/03/14 06:49:04;;;;;;;63.47;36.60;;;;;;;31.23;37.42;98731.75;4883266;29;20436;-63
2023/03/14 06:52:03;;;;;;;65.32;35.55;;;;;;;31.13;34.27;98719.22;4887483;29;20116;-67
2023/03/14 06:54:39;;;;;;;52.20;31.67;;;;;;;31.15;36.39;98718.91;4880665;29;20060;-66
2023/03/14 06:57:29;;;;;;;46.65;29.45;;;;;;;31.14;36.03;98711.81;4899224;29;20132;-66
2023/03/14 07:00:20;;;;;;;54.65;30.20;;;;;;;31.29;36.47;98707.75;4882030;29;20439;-66
2023/03/14 07:03:10;;;;;;;49.30;30.42;;;;;;;31.25;33.82;98707.59;4894700;29;20044;-62
2023/03/14 07:05:56;;;;;;;56.88;32.00;;;;;;;31.42;35.35;98706.72;4911429;29;20040;-63
2023/03/14 07:08:52;;;;;;;44.80;23.20;;;;;;;31.35;32.35;98701.75;4891148;29;20135;-65
2023/03/14 07:11:28;;;;;;;40.30;24.20;;;;;;;31.39;34.69;98699.97;4871288;29;20063;-64
2023/03/14 07:14:24;;;;;;;66.25;35.55;;;;;;;31.41;35.53;98689.50;4875143;29;20372;-63
2023/03/14 07:17:00;;;;;;;51.83;29.92;;;;;;;31.49;36.11;98688.66;4876190;29;20044;-62
2023/03/14 07:19:56;;;;;;;42.67;24.48;;;;;;;31.37;35.18;98687.75;4886207;29;20059;-62
2023/03/14 07:22:50;;;;;;;39.92;22.50;;;;;;;31.27;33.97;98677.97;4864717;29;20056;-64
2023/03/14 07:25:47;;;;;;;40.30;22.30;;;;;;;31.35;35.54;98679.03;4864801;29;20059;-62
2023/03/14 07:28:38;;;;;;;30.08;18.55;;;;;;;31.66;33.35;98671.34;4881297;29;20127;-62
2023/03/14 07:31:29;;;;;;;28.38;13.13;;;;;;;31.66;32.02;98663.13;4875159;29;20063;-61
2023/03/14 07:34:11;;;;;;;19.40;7.25;;;;;;;31.62;32.55;98668.47;4883809;29;20056;-62
2023/03/14 07:37:01;;;;;;;21.23;8.43;;;;;;;31.63;31.84;98664.59;4886450;29;20048;-59
2023/03/14 07:39:43;;;;;;;22.60;7.88;;;;;;;31.73;30.97;98657.13;4882301;29;20481;-60
2023/03/14 07:42:36;;;;;;;18.60;9.60;;;;;;;31.81;32.11;98654.34;4877319;29;20048;-60
2023/03/14 07:45:24;;;;;;;21.95;9.45;;;;;;;31.87;31.24;98638.47;4890528;29;20112;-63
2023/03/14 07:48:24;;;;;;;19.08;10.38;;;;;;;31.46;34.31;98636.50;4888529;29;20063;-58
2023/03/14 07:51:06;;;;;;;20.50;9.88;;;;;;;31.61;33.97;98642.22;4869841;29;20056;-60
2023/03/14 07:53:55;;;;;;;29.30;12.43;;;;;;;31.66;34.90;98627.53;4886351;29;20136;-64
2023/03/14 07:56:37;;;;;;;26.33;13.05;;;;;;;31.63;34.26;98620.78;4882208;29;20120;-61
2023/03/14 07:59:26;;;;;;;23.65;13.57;;;;;;;31.47;36.08;98619.72;4891094;29;20063;-64
2023/03/14 08:02:12;;;;;;;30.05;14.18;;;;;;;31.33;35.65;98615.63;4892370;29;20045;-63
2023/03/14 08:05:03;;;;;;;27.73;14.93;;;;;;;31.50;36.01;98608.13;4902462;29;20053;-63
2023/03/14 08:07:45;;;;;;;19.23;12.45;;;;;;;31.27;35.96;98595.03;4886888;29;20057;-65
2023/03/14 08:10:34;;;;;;;26.00;12.23;;;;;;;31.42;36.71;98597.22;4869374;29;20159;-65
2023/03/14 08:13:16;;;;;;;24.00;12.27;;;;;;;31.52;35.54;98586.66;4890277;29;20045;-65
2023/03/14 08:16:05;;;;;;;22.50;11.20;;;;;;;31.54;34.19;98583.59;4885131;29;20722;-65
2023/03/14 08:18:47;;;;;;;16.40;9.15;;;;;;;31.20;32.33;98584.63;4880919;29;20116;-66
2023/03/14 08:21:42;;;;;;;21.60;9.70;;;;;;;31.32;33.80;98581.97;4883767;29;20064;-65
2023/03/14 08:24:31;;;;;;;25.02;10.23;;;;;;;31.35;32.77;98581.31;4860135;29;20157;-65
2023/03/14 08:27:22;;;;;;;21.27;10.27;;;;;;;31.39;35.25;98575.97;4876751;29;20148;-66
2023/03/14 08:30:17;;;;;;;16.75;8.60;;;;;;;31.35;31.85;98569.56;4863168;29;20045;-67
2023/03/14 08:33:06;;;;;;;24.83;10.48;;;;;;;31.42;35.48;98575.31;4867134;29;20814;-65
2023/03/14 08:35:57;;;;;;;15.05;9.00;;;;;;;31.20;33.60;98560.78;4863920;29;20065;-65
2023/03/14 08:38:46;;;;;;;15.68;8.68;;;;;;;31.11;34.31;98554.56;4867255;29;20167;-61
2023/03/14 08:41:28;;;;;;;12.65;8.90;;;;;;;30.95;35.43;98547.22;4848813;29;20141;-66
2023/03/14 08:44:17;;;;;;;13.60;8.55;;;;;;;31.06;36.16;98545.75;4864547;29;20037;-64
2023/03/14 08:47:00;;;;;;;15.98;9.43;;;;;;;30.81;36.50;98539.22;4865098;29;20049;-67
2023/03/14 08:49:49;;;;;;;14.70;9.07;;;;;;;30.75;37.68;98544.09;4865362;29;20068;-66
2023/03/14 08:52:32;;;;;;;15.55;9.32;;;;;;;30.73;36.56;98540.09;4864622;29;20049;-62
2023/03/14 08:55:20;;;;;;;22.13;8.85;;;;;;;30.73;37.64;98534.59;4863833;29;20058;-65
2023/03/14 08:58:15;;;;;;;9.93;6.28;;;;;;;30.73;33.81;98529.94;4870049;29;20065;-65
2023/03/14 09:00:51;;;;;;;9.57;7.10;;;;;;;30.57;34.50;98522.63;4891492;29;20048;-67
2023/03/14 09:03:47;;;;;;;;;;;;;;;30.37;37.13;98518.63;4871982;29;20128;-62
2023/03/14 09:06:24;;;;;;;11.27;8.45;;;;;;;30.31;37.76;98518.03;4856300;29;20027;-64
2023/03/14 09:09:13;;;;;;;18.38;9.38;;;;;;;30.39;36.84;98507.38;4886550;29;20045;-65
2023/03/14 09:11:55;;;;;;;19.90;9.63;;;;;;;30.31;38.32;98509.81;4890589;29;20147;-64
2023/03/14 09:14:44;;;;;;;22.85;11.80;;;;;;;30.34;38.75;98500.97;4854116;29;20049;-64
2023/03/14 09:17:26;;;;;;;18.67;11.07;;;;;;;30.44;39.23;98496.28;4881435;29;20075;-70
2023/03/14 09:20:22;;;;;;;25.60;11.98;;;;;;;30.46;40.13;98505.78;4879969;29;20052;-61
2023/03/14 09:23:11;;;;;;;18.00;11.23;;;;;;;30.51;38.87;98499.31;4881826;29;20057;-63
2023/03/14 09:26:04;;;;;;;20.38;10.77;;;;;;;30.51;38.35;98497.38;4881675;29;20080;-62
2023/03/14 09:28:48;;;;;;;23.48;10.60;;;;;;;30.56;37.45;98499.16;4881831;29;20492;-62
2023/03/14 09:31:38;;;;;;;28.20;11.13;;;;;;;30.55;37.78;98489.34;4884494;29;20053;-63
2023/03/14 09:34:20;;;;;;;14.65;8.60;;;;;;;30.56;35.13;98486.28;4888237;29;20048;-65
2023/03/14 09:37:10;;;;;;;18.02;7.88;;;;;;;30.59;34.13;98487.53;4890137;29;20057;-67
2023/03/14 09:39:52;;;;;;;;;;;;;;;30.66;33.69;98482.38;4896280;29;20597;-67
2023/03/14 09:42:43;;;;;;;13.50;8.00;;;;;;;30.63;35.57;98483.81;4893134;29;19927;-66
2023/03/14 09:45:46;;;;;;;17.83;7.68;;;;;;;30.55;34.39;98473.72;4771195;27;9197088;-64
2023/03/14 09:48:35;;;;;;;12.52;7.70;;;;;;;30.45;34.67;98465.88;5101108;28;20139;-64
2023/03/14 09:51:28;;;;;;;13.05;7.57;;;;;;;30.55;34.38;98468.25;5101526;28;20056;-63
2023/03/14 09:54:38;;;;;;;13.27;8.93;;;;;;;30.49;34.57;98468.78;5101677;28;20155;-66
2023/03/14 09:57:32;;;;;;;17.08;8.73;;;;;;;30.45;35.70;98462.38;5073356;28;20051;-64
2023/03/14 10:00:25;;;;;;;14.52;7.65;;;;;;;30.36;34.88;98456.13;5098925;28;20056;-66
2023/03/14 10:03:31;;;;;;;18.30;8.40;;;;;;;30.40;35.18;98457.06;5091256;28;20044;-60
2023/03/14 10:06:21;;;;;;;17.55;8.65;;;;;;;30.26;36.20;98452.63;5101247;28;20089;-66
2023/03/14 10:09:05;;;;;;;14.77;8.15;;;;;;;30.15;35.64;98442.34;5082606;28;20044;-66
2023/03/14 10:12:01;;;;;;;20.65;8.70;;;;;;;30.10;36.58;98437.06;5098886;28;20048;-64
2023/03/14 10:15:00;;;;;;;12.82;8.75;;;;;;;30.04;37.63;98446.59;5097331;28;20534;-66
2023/03/14 10:17:53;;;;;;;14.77;8.40;;;;;;;29.95;37.10;98440.34;5099897;28;20130;-65
2023/03/14 10:20:48;;;;;;;14.60;8.02;;;;;;;29.79;37.70;98429.09;5100105;28;20139;-65
2023/03/14 10:23:32;;;;;;;13.75;8.90;;;;;;;29.83;37.23;98425.38;5098480;28;20044;-64
2023/03/14 10:26:25;;;;;;;20.98;8.60;;;;;;;29.88;35.93;98429.91;5089559;28;20151;-62
2023/03/14 10:29:13;;;;;;;14.82;10.07;;;;;;;29.99;37.13;98427.63;5094705;28;20170;-65
2023/03/14 10:32:14;;;;;;;12.90;9.25;;;;;;;30.02;37.00;98421.50;5098873;28;20416;-67
2023/03/14 10:35:04;;;;;;;13.52;9.98;;;;;;;30.01;37.31;98417.97;5098615;28;20108;-63
2023/03/14 10:38:09;;;;;;;20.38;9.48;;;;;;;29.98;36.72;98412.38;5099812;28;20058;-65
2023/03/14 10:40:52;;;;;;;17.45;9.77;;;;;;;29.96;37.96;98406.44;5096506;27;20058;-67
2023/03/14 10:43:49;;;;;;;13.13;9.27;;;;;;;29.81;38.83;98403.06;5098340;28;20048;-68
2023/03/14 10:46:45;;;;;;;16.73;9.38;;;;;;;29.71;37.40;98406.13;4745936;28;10001062;-65
2023/03/14 10:49:29;;;;;;;17.08;8.38;;;;;;;29.76;34.71;98397.78;5068267;28;20044;-65
2023/03/14 10:52:25;;;;;;;13.82;7.57;;;;;;;29.74;34.49;98402.75;5096839;28;20062;-67
2023/03/14 10:55:30;;;;;;;10.63;7.32;;;;;;;29.62;35.23;98397.16;5089518;28;20101;-66
2023/03/14 10:58:34;;;;;;;13.60;6.80;;;;;;;29.56;34.78;98398.47;5081478;28;20055;-66
2023/03/14 11:01:44;;;;;;;12.40;7.55;;;;;;;29.59;34.71;98386.09;5079730;28;20732;-64
2023/03/14 11:04:57;;;;;;;16.35;7.97;;;;;;;29.53;36.57;98390.91;5081490;28;20056;-67
2023/03/14 11:07:48;;;;;;;13.40;8.20;;;;;;;29.44;35.92;98387.41;5063685;28;20535;-67
2023/03/14 11:10:46;;;;;;;17.60;8.73;;;;;;;29.50;35.32;98386.13;5069876;28;20045;-65
2023/03/14 11:13:25;;;;;;;12.10;8.60;;;;;;;29.53;34.55;98387.38;5063537;28;20052;-64
2023/03/14 11:16:27;;;;;;;13.20;8.88;;;;;;;29.42;37.52;98385.00;5041810;28;20110;-62
2023/03/14 11:19:32;;;;;;;16.00;9.43;;;;;;;29.30;36.25;98387.56;5065004;28;20051;-68
2023/03/14 11:22:41;;;;;;;13.45;7.80;;;;;;;29.13;37.60;98384.03;5064263;28;20106;-66
2023/03/14 11:25:27;;;;;;;11.90;7.65;;;;;;;28.94;36.66;98376.19;5049601;28;20117;-66
2023/03/14 11:28:46;;;;;;;11.32;7.20;;;;;;;28.91;35.99;98374.06;5048648;28;20047;-66
2023/03/14 11:31:32;;;;;;;11.27;8.00;;;;;;;28.85;37.53;98372.66;5066384;28;20448;-66
2023/03/14 11:34:42;;;;;;;19.48;9.00;;;;;;;28.89;37.80;98368.16;5062953;28;20040;-67
2023/03/14 11:37:56;;;;;;;19.83;9.93;;;;;;;28.86;39.02;98358.66;5080665;28;20048;-67
2023/03/14 11:40:46;;;;;;;17.23;9.23;;;;;;;28.75;39.94;98356.59;5043851;28;20106;-68
2023/03/14 11:43:42;;;;;;;18.92;11.07;;;;;;;28.74;39.94;98358.50;5053469;28;20045;-67
2023/03/14 11:46:42;;;;;;;16.27;11.15;;;;;;;28.71;41.27;98352.91;5085789;28;20139;-66
2023/03/14 11:49:34;;;;;;;25.58;12.70;;;;;;;28.66;40.85;98364.72;5086140;28;20507;-66
2023/03/14 11:52:22;;;;;;;20.42;10.93;;;;;;;28.58;41.60;98354.63;5081615;28;20048;-68
2023/03/14 11:55:19;;;;;;;14.57;11.05;;;;;;;28.53;41.50;98358.31;5084218;28;20048;-67
2023/03/14 11:58:13;;;;;;;21.45;12.23;;;;;;;28.48;41.83;98346.75;5085722;28;20694;-66
2023/03/14 12:01:06;;;;;;;19.23;11.80;;;;;;;28.50;40.02;98352.69;5084781;28;20467;-68
2023/03/14 12:03:58;;;;;;;23.85;11.60;;;;;;;28.51;40.80;98346.09;5084147;28;20121;-69
2023/03/14 12:06:57;;;;;;;18.77;11.45;;;;;;;28.46;41.60;98348.97;5082770;28;20036;-69
2023/03/14 12:09:57;;;;;;;17.95;11.38;;;;;;;28.36;41.75;98338.38;5079037;28;20052;-67
2023/03/14 12:12:33;;;;;;;15.75;10.82;;;;;;;28.29;42.58;98341.56;5062967;28;20044;-68
2023/03/14 12:15:29;;;;;;;;;;;;;;;28.23;43.10;98342.84;5061992;28;20128;-67
2023/03/14 12:18:21;;;;;;;20.92;12.50;;;;;;;28.18;42.99;98348.44;5060032;28;20474;-66
2023/03/14 12:21:19;;;;;;;20.83;12.30;;;;;;;28.18;42.58;98350.34;5046440;28;20052;-67
2023/03/14 12:23:57;;;;;;;30.27;12.57;;;;;;;28.10;42.95;98341.03;5049692;28;20637;-67
2023/03/14 12:27:03;;;;;;;19.27;12.55;;;;;;;28.03;43.56;98346.91;5074070;28;20522;-68
2023/03/14 12:29:59;;;;;;;15.85;11.30;;;;;;;27.97;44.04;98345.44;5067570;28;20407;-69
2023/03/14 12:33:09;;;;;;;23.58;13.30;;;;;;;27.94;45.91;98345.25;5049997;28;20052;-69
2023/03/14 12:35:57;;;;;;;30.58;14.30;;;;;;;27.89;47.13;98345.41;5066518;28;20036;-70
2023/03/14 12:38:59;;;;;;;28.40;14.68;;;;;;;27.86;46.20;98348.75;5061579;28;20044;-66
2023/03/14 12:41:44;;;;;;;18.88;11.70;;;;;;;27.76;46.46;98344.38;5062605;28;20511;-67
2023/03/14 12:44:47;;;;;;;27.65;14.10;;;;;;;27.76;47.15;98343.56;5071506;28;20048;-66
2023/03/14 12:47:38;;;;;;;20.45;13.82;;;;;;;27.68;46.53;98342.44;5083614;28;20570;-66
2023/03/14 12:50:35;;;;;;;27.13;13.35;;;;;;;27.64;47.13;98339.53;5078642;28;20143;-65
2023/03/14 12:53:42;;;;;;;19.05;12.70;;;;;;;27.61;46.98;98340.16;5079707;28;20052;-65
2023/03/14 12:56:57;;;;;;;28.42;14.13;;;;;;;27.56;47.40;98343.00;5080756;28;20086;-64
2023/03/14 12:59:55;;;;;;;31.90;13.38;;;;;;;27.47;47.06;98353.00;5033587;28;20069;-65
2023/03/14 13:02:48;;;;;;;25.48;11.65;;;;;;;27.42;46.62;98355.06;5081847;28;20044;-65
2023/03/14 13:05:31;;;;;;;20.65;11.50;;;;;;;27.32;47.05;98350.66;5081789;28;20663;-64
2023/03/14 13:08:20;;;;;;;24.02;12.32;;;;;;;27.28;46.30;98352.41;5063643;28;20051;-64
2023/03/14 13:11:05;;;;;;;23.77;12.00;;;;;;;27.23;46.99;98350.59;5082596;28;20044;-64
2023/03/14 13:14:02;;;;;;;23.80;11.75;;;;;;;27.20;46.71;98350.44;5075118;28;20044;-65